sensor_id;sensor_type;location;lat;lon;timestamp;P1;durP1;ratioP1;P2;durP2;ratioP2
35907;SDS011;22003;50.320;8.054;2023-05-10T04:02:41;2.40;;;0.98;;
35907;SDS011;22003;50.320;8.054;2023-05-10T04:05:07;2.47;;;1.35;;
35907;SDS011;22003;50.320;8.054;2023-05-10T04:07:32;0.75;;;0.75;;
35907;SDS011;22003;50.320;8.054;2023-05-10T04:09:57;1.40;;;0.90;;
35907;SDS011;22003;50.320;8.054;2023-05-10T04:12:23;0.93;;;0.88;;
35907;SDS011;22003;50.320;8.054;2023-05-10T04:14:48;1.38;;;0.88;;
35907;SDS011;22003;50.320;8.054;2023-05-10T04:17:14;1.98;;;1.05;;
35907;SDS011;22003;50.320;8.054;2023-05-10T04:19:39;2.28;;;1.20;;
35907;SDS011;22003;50.320;8.054;2023-05-10T04:22:04;2.97;;;1.42;;
35907;SDS011;22003;50.320;8.054;2023-05-10T04:24:30;1.92;;;1.50;;
35907;SDS011;22003;50.320;8.054;2023-05-10T04:26:55;2.97;;;1.30;;
35907;SDS011;22003;50.320;8.054;2023-05-10T04:29:20;2.53;;;1.50;;
35907;SDS011;22003;50.320;8.054;2023-05-10T04:31:45;3.40;;;1.85;;
35907;SDS011;22003;50.320;8.054;2023-05-10T04:34:11;2.13;;;1.55;;
35907;SDS011;22003;50.320;8.054;2023-05-10T04:36:36;1.85;;;1.38;;
35907;SDS011;22003;50.320;8.054;2023-05-10T04:39:02;1.50;;;1.17;;
35907;SDS011;22003;50.320;8.054;2023-05-10T04:41:28;6.25;;;1.30;;
35907;SDS011;22003;50.320;8.054;2023-05-10T04:43:53;1.40;;;1.17;;
35907;SDS011;22003;50.320;8.054;2023-05-10T04:46:19;6.95;;;3.83;;
35907;SDS011;22003;50.320;8.054;2023-05-10T04:48:44;1.98;;;1.38;;
35907;SDS011;22003;50.320;8.054;2023-05-10T04:51:09;4.40;;;1.70;;
35907;SDS011;22003;50.320;8.054;2023-05-10T04:53:34;3.40;;;1.75;;
35907;SDS011;22003;50.320;8.054;2023-05-10T04:56:00;1.55;;;1.45;;
35907;SDS011;22003;50.320;8.054;2023-05-10T04:58:26;2.30;;;1.60;;
35907;SDS011;22003;50.320;8.054;2023-05-10T05:00:51;5.72;;;2.03;;
35907;SDS011;22003;50.320;8.054;2023-05-10T05:03:16;2.95;;;1.88;;
35907;SDS011;22003;50.320;8.054;2023-05-10T05:05:41;2.42;;;1.95;;
35907;SDS011;22003;50.320;8.054;2023-05-10T05:08:07;2.40;;;2.10;;
35907;SDS011;22003;50.320;8.054;2023-05-10T05:10:32;4.30;;;2.03;;
35907;SDS011;22003;50.320;8.054;2023-05-10T05:12:57;3.47;;;2.10;;
35907;SDS011;22003;50.320;8.054;2023-05-10T05:15:22;4.60;;;3.45;;
35907;SDS011;22003;50.320;8.054;2023-05-10T05:17:48;4.15;;;2.50;;
35907;SDS011;22003;50.320;8.054;2023-05-10T05:20:13;4.90;;;2.38;;
35907;SDS011;22003;50.320;8.054;2023-05-10T05:22:39;2.70;;;2.13;;
35907;SDS011;22003;50.320;8.054;2023-05-10T05:25:04;2.53;;;2.10;;
35907;SDS011;22003;50.320;8.054;2023-05-10T05:27:30;2.47;;;1.80;;
35907;SDS011;22003;50.320;8.054;2023-05-10T05:29:56;2.58;;;2.00;;
35907;SDS011;22003;50.320;8.054;2023-05-10T05:32:22;5.55;;;1.70;;
35907;SDS011;22003;50.320;8.054;2023-05-10T05:34:49;2.25;;;1.88;;
35907;SDS011;22003;50.320;8.054;2023-05-10T05:37:15;3.15;;;1.75;;
35907;SDS011;22003;50.320;8.054;2023-05-10T05:39:41;5.53;;;2.13;;
35907;SDS011;22003;50.320;8.054;2023-05-10T05:42:07;4.40;;;1.70;;
35907;SDS011;22003;50.320;8.054;2023-05-10T05:44:36;3.78;;;1.70;;
35907;SDS011;22003;50.320;8.054;2023-05-10T05:47:01;3.20;;;1.60;;
35907;SDS011;22003;50.320;8.054;2023-05-10T05:49:27;3.70;;;1.52;;
35907;SDS011;22003;50.320;8.054;2023-05-10T05:51:52;2.22;;;1.52;;
35907;SDS011;22003;50.320;8.054;2023-05-10T05:54:17;2.28;;;1.88;;
35907;SDS011;22003;50.320;8.054;2023-05-10T05:56:43;3.35;;;1.58;;
35907;SDS011;22003;50.320;8.054;2023-05-10T05:59:09;2.60;;;1.60;;
35907;SDS011;22003;50.320;8.054;2023-05-10T06:01:34;2.35;;;1.70;;
35907;SDS011;22003;50.320;8.054;2023-05-10T06:03:59;2.90;;;1.42;;
35907;SDS011;22003;50.320;8.054;2023-05-10T06:06:25;2.17;;;1.75;;
35907;SDS011;22003;50.320;8.054;2023-05-10T06:08:50;3.67;;;2.20;;
35907;SDS011;22003;50.320;8.054;2023-05-10T06:11:16;3.17;;;1.70;;
35907;SDS011;22003;50.320;8.054;2023-05-10T06:13:41;8.15;;;3.17;;
35907;SDS011;22003;50.320;8.054;2023-05-10T06:16:07;2.65;;;1.65;;
35907;SDS011;22003;50.320;8.054;2023-05-10T06:18:32;3.33;;;1.88;;
35907;SDS011;22003;50.320;8.054;2023-05-10T06:20:57;3.33;;;1.98;;
35907;SDS011;22003;50.320;8.054;2023-05-10T06:23:23;3.42;;;1.50;;
35907;SDS011;22003;50.320;8.054;2023-05-10T06:25:48;4.93;;;2.22;;
35907;SDS011;22003;50.320;8.054;2023-05-10T06:28:13;4.32;;;2.28;;
35907;SDS011;22003;50.320;8.054;2023-05-10T06:30:38;3.05;;;1.77;;
35907;SDS011;22003;50.320;8.054;2023-05-10T06:33:04;5.20;;;2.22;;
35907;SDS011;22003;50.320;8.054;2023-05-10T06:35:29;4.00;;;2.08;;
35907;SDS011;22003;50.320;8.054;2023-05-10T06:37:56;5.32;;;1.65;;
35907;SDS011;22003;50.320;8.054;2023-05-10T06:40:21;2.83;;;1.60;;
35907;SDS011;22003;50.320;8.054;2023-05-10T06:42:47;2.42;;;1.50;;
35907;SDS011;22003;50.320;8.054;2023-05-10T06:45:13;2.50;;;1.67;;
35907;SDS011;22003;50.320;8.054;2023-05-10T06:47:39;3.17;;;1.95;;
35907;SDS011;22003;50.320;8.054;2023-05-10T06:50:05;4.53;;;2.00;;
35907;SDS011;22003;50.320;8.054;2023-05-10T06:52:31;1.55;;;1.42;;
35907;SDS011;22003;50.320;8.054;2023-05-10T06:54:56;4.15;;;1.60;;
35907;SDS011;22003;50.320;8.054;2023-05-10T06:57:22;5.90;;;1.58;;
35907;SDS011;22003;50.320;8.054;2023-05-10T06:59:47;2.95;;;1.55;;
35907;SDS011;22003;50.320;8.054;2023-05-10T07:02:13;4.05;;;1.42;;
35907;SDS011;22003;50.320;8.054;2023-05-10T07:04:39;4.30;;;1.70;;
35907;SDS011;22003;50.320;8.054;2023-05-10T07:07:05;2.83;;;1.48;;
35907;SDS011;22003;50.320;8.054;2023-05-10T07:09:30;2.20;;;1.52;;
35907;SDS011;22003;50.320;8.054;2023-05-10T07:11:55;2.58;;;1.95;;
35907;SDS011;22003;50.320;8.054;2023-05-10T07:14:22;2.17;;;1.50;;
35907;SDS011;22003;50.320;8.054;2023-05-10T07:16:47;2.13;;;1.23;;
35907;SDS011;22003;50.320;8.054;2023-05-10T07:19:12;6.90;;;2.40;;
35907;SDS011;22003;50.320;8.054;2023-05-10T07:21:37;1.88;;;1.58;;
35907;SDS011;22003;50.320;8.054;2023-05-10T07:24:05;3.78;;;1.58;;
35907;SDS011;22003;50.320;8.054;2023-05-10T07:26:30;5.70;;;2.00;;
35907;SDS011;22003;50.320;8.054;2023-05-10T07:28:56;3.30;;;2.20;;
35907;SDS011;22003;50.320;8.054;2023-05-10T07:31:21;4.22;;;1.63;;
35907;SDS011;22003;50.320;8.054;2023-05-10T07:33:46;2.40;;;1.73;;
35907;SDS011;22003;50.320;8.054;2023-05-10T07:36:12;4.03;;;2.20;;
35907;SDS011;22003;50.320;8.054;2023-05-10T07:38:37;5.22;;;1.90;;
35907;SDS011;22003;50.320;8.054;2023-05-10T07:41:02;5.97;;;2.30;;
35907;SDS011;22003;50.320;8.054;2023-05-10T07:43:28;4.78;;;2.42;;
35907;SDS011;22003;50.320;8.054;2023-05-10T07:45:53;4.80;;;2.20;;
35907;SDS011;22003;50.320;8.054;2023-05-10T07:48:18;2.72;;;2.08;;
35907;SDS011;22003;50.320;8.054;2023-05-10T07:50:43;2.60;;;1.85;;
35907;SDS011;22003;50.320;8.054;2023-05-10T07:53:09;7.25;;;1.70;;
35907;SDS011;22003;50.320;8.054;2023-05-10T07:55:34;2.28;;;1.52;;
35907;SDS011;22003;50.320;8.054;2023-05-10T07:58:00;2.97;;;1.70;;
35907;SDS011;22003;50.320;8.054;2023-05-10T08:00:26;5.47;;;1.70;;
35907;SDS011;22003;50.320;8.054;2023-05-10T08:02:51;2.78;;;1.67;;
35907;SDS011;22003;50.320;8.054;2023-05-10T08:05:16;3.92;;;1.90;;
35907;SDS011;22003;50.320;8.054;2023-05-10T08:07:42;3.40;;;1.48;;
35907;SDS011;22003;50.320;8.054;2023-05-10T08:10:08;7.22;;;2.33;;
35907;SDS011;22003;50.320;8.054;2023-05-10T08:12:34;5.78;;;2.03;;
35907;SDS011;22003;50.320;8.054;2023-05-10T08:14:59;4.82;;;2.60;;
35907;SDS011;22003;50.320;8.054;2023-05-10T08:17:25;7.30;;;2.30;;
35907;SDS011;22003;50.320;8.054;2023-05-10T08:19:50;4.40;;;2.13;;
35907;SDS011;22003;50.320;8.054;2023-05-10T08:22:15;4.10;;;2.10;;
35907;SDS011;22003;50.320;8.054;2023-05-10T08:24:41;4.60;;;2.33;;
35907;SDS011;22003;50.320;8.054;2023-05-10T08:27:07;2.95;;;1.73;;
35907;SDS011;22003;50.320;8.054;2023-05-10T08:29:33;1.58;;;1.38;;
35907;SDS011;22003;50.320;8.054;2023-05-10T08:31:59;6.55;;;2.20;;
35907;SDS011;22003;50.320;8.054;2023-05-10T08:34:25;4.60;;;1.60;;
35907;SDS011;22003;50.320;8.054;2023-05-10T08:36:51;6.70;;;2.25;;
35907;SDS011;22003;50.320;8.054;2023-05-10T08:39:16;3.42;;;1.90;;
35907;SDS011;22003;50.320;8.054;2023-05-10T08:41:41;3.83;;;1.80;;
35907;SDS011;22003;50.320;8.054;2023-05-10T08:46:34;4.57;;;1.80;;
35907;SDS011;22003;50.320;8.054;2023-05-10T08:49:04;5.28;;;2.53;;
35907;SDS011;22003;50.320;8.054;2023-05-10T08:51:33;6.13;;;2.00;;
35907;SDS011;22003;50.320;8.054;2023-05-10T08:54:01;1.95;;;1.70;;
35907;SDS011;22003;50.320;8.054;2023-05-10T08:56:27;2.65;;;1.58;;
35907;SDS011;22003;50.320;8.054;2023-05-10T08:58:56;2.05;;;1.60;;
35907;SDS011;22003;50.320;8.054;2023-05-10T09:01:22;5.03;;;1.90;;
35907;SDS011;22003;50.320;8.054;2023-05-10T09:03:48;5.00;;;1.80;;
35907;SDS011;22003;50.320;8.054;2023-05-10T09:06:15;7.25;;;1.50;;
35907;SDS011;22003;50.320;8.054;2023-05-10T09:08:41;4.88;;;1.73;;
35907;SDS011;22003;50.320;8.054;2023-05-10T09:11:07;1.98;;;1.35;;
35907;SDS011;22003;50.320;8.054;2023-05-10T09:13:33;2.38;;;1.50;;
35907;SDS011;22003;50.320;8.054;2023-05-10T09:16:00;3.20;;;1.37;;
35907;SDS011;22003;50.320;8.054;2023-05-10T09:18:25;2.70;;;1.42;;
35907;SDS011;22003;50.320;8.054;2023-05-10T09:20:51;2.10;;;1.40;;
35907;SDS011;22003;50.320;8.054;2023-05-10T09:23:16;4.28;;;1.65;;
35907;SDS011;22003;50.320;8.054;2023-05-10T09:25:41;1.70;;;1.20;;
35907;SDS011;22003;50.320;8.054;2023-05-10T09:28:07;4.85;;;1.60;;
35907;SDS011;22003;50.320;8.054;2023-05-10T09:30:36;2.83;;;1.42;;
35907;SDS011;22003;50.320;8.054;2023-05-10T09:33:01;3.45;;;1.13;;
35907;SDS011;22003;50.320;8.054;2023-05-10T09:35:28;4.05;;;2.10;;
35907;SDS011;22003;50.320;8.054;2023-05-10T09:37:54;2.28;;;1.02;;
35907;SDS011;22003;50.320;8.054;2023-05-10T09:40:28;3.05;;;1.88;;
35907;SDS011;22003;50.320;8.054;2023-05-10T09:42:58;3.80;;;1.83;;
35907;SDS011;22003;50.320;8.054;2023-05-10T09:45:33;2.90;;;1.10;;
35907;SDS011;22003;50.320;8.054;2023-05-10T09:48:01;0.70;;;0.70;;
35907;SDS011;22003;50.320;8.054;2023-05-10T09:50:27;0.80;;;0.57;;
35907;SDS011;22003;50.320;8.054;2023-05-10T09:52:54;0.93;;;0.70;;
35907;SDS011;22003;50.320;8.054;2023-05-10T09:55:37;1.85;;;0.93;;
35907;SDS011;22003;50.320;8.054;2023-05-10T09:58:14;1.30;;;0.50;;
35907;SDS011;22003;50.320;8.054;2023-05-10T10:00:40;1.33;;;0.60;;
35907;SDS011;22003;50.320;8.054;2023-05-10T10:03:11;0.45;;;0.45;;
35907;SDS011;22003;50.320;8.054;2023-05-10T10:05:39;0.85;;;0.52;;
35907;SDS011;22003;50.320;8.054;2023-05-10T10:08:05;2.00;;;0.50;;
35907;SDS011;22003;50.320;8.054;2023-05-10T10:10:31;0.60;;;0.47;;
35907;SDS011;22003;50.320;8.054;2023-05-10T10:12:58;0.90;;;0.50;;
35907;SDS011;22003;50.320;8.054;2023-05-10T10:15:24;2.67;;;0.70;;
35907;SDS011;22003;50.320;8.054;2023-05-10T10:17:50;0.30;;;0.30;;
35907;SDS011;22003;50.320;8.054;2023-05-10T10:20:16;1.03;;;0.50;;
35907;SDS011;22003;50.320;8.054;2023-05-10T10:22:43;0.55;;;0.45;;
35907;SDS011;22003;50.320;8.054;2023-05-10T10:25:09;0.32;;;0.32;;
35907;SDS011;22003;50.320;8.054;2023-05-10T10:27:44;0.50;;;0.40;;
35907;SDS011;22003;50.320;8.054;2023-05-10T10:33:13;2.10;;;0.40;;
35907;SDS011;22003;50.320;8.054;2023-05-10T10:35:55;3.70;;;0.55;;
35907;SDS011;22003;50.320;8.054;2023-05-10T10:38:22;0.88;;;0.45;;
35907;SDS011;22003;50.320;8.054;2023-05-10T10:40:48;0.85;;;0.50;;
35907;SDS011;22003;50.320;8.054;2023-05-10T10:43:26;1.90;;;0.50;;
35907;SDS011;22003;50.320;8.054;2023-05-10T10:48:39;2.80;;;0.50;;
35907;SDS011;22003;50.320;8.054;2023-05-10T10:51:05;1.25;;;0.68;;
35907;SDS011;22003;50.320;8.054;2023-05-10T10:53:30;0.93;;;0.50;;
35907;SDS011;22003;50.320;8.054;2023-05-10T10:56:06;2.05;;;0.40;;
35907;SDS011;22003;50.320;8.054;2023-05-10T10:58:33;0.40;;;0.40;;
35907;SDS011;22003;50.320;8.054;2023-05-10T11:01:17;0.43;;;0.40;;
35907;SDS011;22003;50.320;8.054;2023-05-10T11:06:42;0.82;;;0.50;;
35907;SDS011;22003;50.320;8.054;2023-05-10T11:09:08;2.78;;;0.60;;
35907;SDS011;22003;50.320;8.054;2023-05-10T11:11:35;2.42;;;0.60;;
35907;SDS011;22003;50.320;8.054;2023-05-10T11:14:04;0.88;;;0.40;;
35907;SDS011;22003;50.320;8.054;2023-05-10T11:16:44;0.40;;;0.40;;
35907;SDS011;22003;50.320;8.054;2023-05-10T11:19:10;0.57;;;0.43;;
35907;SDS011;22003;50.320;8.054;2023-05-10T11:21:47;3.08;;;0.50;;
35907;SDS011;22003;50.320;8.054;2023-05-10T11:24:17;3.92;;;0.40;;
35907;SDS011;22003;50.320;8.054;2023-05-10T11:26:44;1.10;;;0.40;;
35907;SDS011;22003;50.320;8.054;2023-05-10T11:29:10;0.52;;;0.50;;
35907;SDS011;22003;50.320;8.054;2023-05-10T11:31:41;1.05;;;0.70;;
35907;SDS011;22003;50.320;8.054;2023-05-10T11:34:11;1.52;;;0.40;;
35907;SDS011;22003;50.320;8.054;2023-05-10T11:36:50;0.65;;;0.43;;
35907;SDS011;22003;50.320;8.054;2023-05-10T11:39:16;1.02;;;0.40;;
35907;SDS011;22003;50.320;8.054;2023-05-10T11:41:41;0.77;;;0.40;;
35907;SDS011;22003;50.320;8.054;2023-05-10T11:44:07;3.13;;;0.50;;
35907;SDS011;22003;50.320;8.054;2023-05-10T11:46:34;0.45;;;0.43;;
35907;SDS011;22003;50.320;8.054;2023-05-10T11:49:01;0.52;;;0.50;;
35907;SDS011;22003;50.320;8.054;2023-05-10T11:51:28;3.95;;;0.57;;
35907;SDS011;22003;50.320;8.054;2023-05-10T11:53:54;0.60;;;0.30;;
35907;SDS011;22003;50.320;8.054;2023-05-10T11:56:21;0.30;;;0.20;;
35907;SDS011;22003;50.320;8.054;2023-05-10T11:58:57;1.50;;;0.40;;
35907;SDS011;22003;50.320;8.054;2023-05-10T12:01:23;1.02;;;0.60;;
35907;SDS011;22003;50.320;8.054;2023-05-10T12:03:50;0.82;;;0.50;;
35907;SDS011;22003;50.320;8.054;2023-05-10T12:06:18;0.57;;;0.30;;
35907;SDS011;22003;50.320;8.054;2023-05-10T12:08:45;0.22;;;0.22;;
35907;SDS011;22003;50.320;8.054;2023-05-10T12:11:11;0.30;;;0.30;;
35907;SDS011;22003;50.320;8.054;2023-05-10T12:13:42;1.85;;;0.30;;
35907;SDS011;22003;50.320;8.054;2023-05-10T12:16:18;0.35;;;0.30;;
35907;SDS011;22003;50.320;8.054;2023-05-10T12:18:44;0.20;;;0.20;;
35907;SDS011;22003;50.320;8.054;2023-05-10T12:21:10;1.70;;;0.40;;
35907;SDS011;22003;50.320;8.054;2023-05-10T12:23:37;2.45;;;0.50;;
35907;SDS011;22003;50.320;8.054;2023-05-10T12:26:03;0.38;;;0.20;;
35907;SDS011;22003;50.320;8.054;2023-05-10T12:28:32;0.30;;;0.20;;
35907;SDS011;22003;50.320;8.054;2023-05-10T12:31:01;0.20;;;0.20;;
35907;SDS011;22003;50.320;8.054;2023-05-10T12:33:27;2.38;;;0.30;;
35907;SDS011;22003;50.320;8.054;2023-05-10T12:36:00;0.68;;;0.28;;
35907;SDS011;22003;50.320;8.054;2023-05-10T12:38:34;2.53;;;0.20;;
35907;SDS011;22003;50.320;8.054;2023-05-10T12:41:00;0.50;;;0.32;;
35907;SDS011;22003;50.320;8.054;2023-05-10T12:43:27;1.02;;;0.38;;
35907;SDS011;22003;50.320;8.054;2023-05-10T12:45:53;2.22;;;0.40;;
35907;SDS011;22003;50.320;8.054;2023-05-10T12:48:18;2.30;;;0.40;;
35907;SDS011;22003;50.320;8.054;2023-05-10T12:50:43;1.92;;;0.50;;
35907;SDS011;22003;50.320;8.054;2023-05-10T12:53:09;0.98;;;0.30;;
35907;SDS011;22003;50.320;8.054;2023-05-10T12:55:34;1.27;;;0.40;;
35907;SDS011;22003;50.320;8.054;2023-05-10T12:57:59;1.77;;;0.35;;
35907;SDS011;22003;50.320;8.054;2023-05-10T13:00:25;1.58;;;0.43;;
35907;SDS011;22003;50.320;8.054;2023-05-10T13:02:50;14.95;;;1.17;;
35907;SDS011;22003;50.320;8.054;2023-05-10T13:05:15;24.63;;;4.53;;
35907;SDS011;22003;50.320;8.054;2023-05-10T13:07:40;10.50;;;1.20;;
35907;SDS011;22003;50.320;8.054;2023-05-10T13:10:06;1.27;;;0.63;;
35907;SDS011;22003;50.320;8.054;2023-05-10T13:12:31;0.93;;;0.60;;
35907;SDS011;22003;50.320;8.054;2023-05-10T13:14:56;0.50;;;0.50;;
35907;SDS011;22003;50.320;8.054;2023-05-10T13:17:22;0.47;;;0.40;;
35907;SDS011;22003;50.320;8.054;2023-05-10T13:19:47;0.80;;;0.60;;
35907;SDS011;22003;50.320;8.054;2023-05-10T13:22:12;1.10;;;0.40;;
35907;SDS011;22003;50.320;8.054;2023-05-10T13:24:38;0.88;;;0.50;;
35907;SDS011;22003;50.320;8.054;2023-05-10T13:27:03;3.03;;;0.55;;
35907;SDS011;22003;50.320;8.054;2023-05-10T13:29:28;2.58;;;0.40;;
35907;SDS011;22003;50.320;8.054;2023-05-10T13:31:53;0.55;;;0.35;;
35907;SDS011;22003;50.320;8.054;2023-05-10T13:34:19;0.52;;;0.40;;
35907;SDS011;22003;50.320;8.054;2023-05-10T13:36:45;0.65;;;0.60;;
35907;SDS011;22003;50.320;8.054;2023-05-10T13:39:11;0.77;;;0.40;;
35907;SDS011;22003;50.320;8.054;2023-05-10T13:41:36;1.95;;;0.38;;
35907;SDS011;22003;50.320;8.054;2023-05-10T13:44:02;2.33;;;0.77;;
35907;SDS011;22003;50.320;8.054;2023-05-10T13:46:28;3.25;;;0.40;;
35907;SDS011;22003;50.320;8.054;2023-05-10T13:48:54;1.27;;;0.50;;
35907;SDS011;22003;50.320;8.054;2023-05-10T13:51:19;0.75;;;0.50;;
35907;SDS011;22003;50.320;8.054;2023-05-10T13:53:44;1.15;;;0.40;;
35907;SDS011;22003;50.320;8.054;2023-05-10T13:56:11;1.95;;;0.30;;
35907;SDS011;22003;50.320;8.054;2023-05-10T13:58:37;0.50;;;0.50;;
35907;SDS011;22003;50.320;8.054;2023-05-10T14:01:02;0.93;;;0.50;;
35907;SDS011;22003;50.320;8.054;2023-05-10T14:03:29;3.10;;;0.57;;
35907;SDS011;22003;50.320;8.054;2023-05-10T14:05:54;3.00;;;0.60;;
35907;SDS011;22003;50.320;8.054;2023-05-10T14:08:20;2.78;;;0.50;;
35907;SDS011;22003;50.320;8.054;2023-05-10T14:10:45;0.88;;;0.47;;
35907;SDS011;22003;50.320;8.054;2023-05-10T14:13:11;0.85;;;0.40;;
35907;SDS011;22003;50.320;8.054;2023-05-10T14:15:37;3.30;;;0.47;;
35907;SDS011;22003;50.320;8.054;2023-05-10T14:18:02;0.63;;;0.40;;
35907;SDS011;22003;50.320;8.054;2023-05-10T14:20:28;0.70;;;0.35;;
35907;SDS011;22003;50.320;8.054;2023-05-10T14:22:54;1.38;;;0.50;;
35907;SDS011;22003;50.320;8.054;2023-05-10T14:25:19;0.98;;;0.80;;
35907;SDS011;22003;50.320;8.054;2023-05-10T14:27:44;0.50;;;0.50;;
35907;SDS011;22003;50.320;8.054;2023-05-10T14:30:10;0.95;;;0.47;;
35907;SDS011;22003;50.320;8.054;2023-05-10T14:32:35;1.42;;;0.63;;
35907;SDS011;22003;50.320;8.054;2023-05-10T14:35:01;1.75;;;0.30;;
35907;SDS011;22003;50.320;8.054;2023-05-10T14:37:27;0.38;;;0.32;;
35907;SDS011;22003;50.320;8.054;2023-05-10T14:39:52;1.17;;;0.50;;
35907;SDS011;22003;50.320;8.054;2023-05-10T14:42:17;0.43;;;0.30;;
35907;SDS011;22003;50.320;8.054;2023-05-10T14:44:43;3.42;;;0.50;;
35907;SDS011;22003;50.320;8.054;2023-05-10T14:47:08;1.77;;;0.50;;
35907;SDS011;22003;50.320;8.054;2023-05-10T14:49:33;0.60;;;0.60;;
35907;SDS011;22003;50.320;8.054;2023-05-10T14:51:58;0.52;;;0.30;;
35907;SDS011;22003;50.320;8.054;2023-05-10T14:54:24;0.30;;;0.30;;
35907;SDS011;22003;50.320;8.054;2023-05-10T14:56:49;1.05;;;0.50;;
35907;SDS011;22003;50.320;8.054;2023-05-10T14:59:14;0.30;;;0.30;;
35907;SDS011;22003;50.320;8.054;2023-05-10T15:01:40;1.88;;;1.20;;
35907;SDS011;22003;50.320;8.054;2023-05-10T15:04:06;2.53;;;0.50;;
35907;SDS011;22003;50.320;8.054;2023-05-10T15:06:35;2.50;;;0.40;;
35907;SDS011;22003;50.320;8.054;2023-05-10T15:09:00;0.55;;;0.47;;
35907;SDS011;22003;50.320;8.054;2023-05-10T15:11:26;0.70;;;0.63;;
35907;SDS011;22003;50.320;8.054;2023-05-10T15:13:51;0.50;;;0.50;;
35907;SDS011;22003;50.320;8.054;2023-05-10T15:16:17;1.38;;;0.70;;
35907;SDS011;22003;50.320;8.054;2023-05-10T15:18:42;1.33;;;0.55;;
35907;SDS011;22003;50.320;8.054;2023-05-10T15:21:07;3.17;;;0.63;;
35907;SDS011;22003;50.320;8.054;2023-05-10T15:23:33;2.47;;;0.60;;
35907;SDS011;22003;50.320;8.054;2023-05-10T15:25:59;0.63;;;0.50;;
35907;SDS011;22003;50.320;8.054;2023-05-10T15:28:25;0.45;;;0.43;;
35907;SDS011;22003;50.320;8.054;2023-05-10T15:30:50;0.57;;;0.57;;
35907;SDS011;22003;50.320;8.054;2023-05-10T15:33:16;0.88;;;0.60;;
35907;SDS011;22003;50.320;8.054;2023-05-10T15:35:41;0.63;;;0.30;;
35907;SDS011;22003;50.320;8.054;2023-05-10T15:38:06;0.47;;;0.32;;
35907;SDS011;22003;50.320;8.054;2023-05-10T15:40:32;0.50;;;0.50;;
35907;SDS011;22003;50.320;8.054;2023-05-10T15:42:57;2.10;;;0.30;;
35907;SDS011;22003;50.320;8.054;2023-05-10T15:45:22;0.73;;;0.50;;
35907;SDS011;22003;50.320;8.054;2023-05-10T15:47:47;1.65;;;0.70;;
35907;SDS011;22003;50.320;8.054;2023-05-10T15:50:13;2.17;;;0.70;;
35907;SDS011;22003;50.320;8.054;2023-05-10T15:52:39;1.53;;;0.67;;
35907;SDS011;22003;50.320;8.054;2023-05-10T15:55:05;0.40;;;0.40;;
35907;SDS011;22003;50.320;8.054;2023-05-10T15:57:36;0.80;;;0.43;;
35907;SDS011;22003;50.320;8.054;2023-05-10T16:00:01;1.55;;;0.52;;
35907;SDS011;22003;50.320;8.054;2023-05-10T16:02:27;0.60;;;0.40;;
35907;SDS011;22003;50.320;8.054;2023-05-10T16:04:53;2.03;;;0.47;;
35907;SDS011;22003;50.320;8.054;2023-05-10T16:07:18;1.20;;;0.57;;
35907;SDS011;22003;50.320;8.054;2023-05-10T16:09:43;0.60;;;0.60;;
35907;SDS011;22003;50.320;8.054;2023-05-10T16:12:08;0.90;;;0.52;;
35907;SDS011;22003;50.320;8.054;2023-05-10T16:14:34;1.45;;;0.63;;
35907;SDS011;22003;50.320;8.054;2023-05-10T16:16:59;1.38;;;0.60;;
35907;SDS011;22003;50.320;8.054;2023-05-10T16:19:25;2.08;;;0.50;;
35907;SDS011;22003;50.320;8.054;2023-05-10T16:21:50;2.20;;;0.70;;
35907;SDS011;22003;50.320;8.054;2023-05-10T16:24:16;1.38;;;0.63;;
35907;SDS011;22003;50.320;8.054;2023-05-10T16:26:41;0.90;;;0.68;;
35907;SDS011;22003;50.320;8.054;2023-05-10T16:29:07;2.40;;;0.57;;
35907;SDS011;22003;50.320;8.054;2023-05-10T16:31:32;3.33;;;0.65;;
35907;SDS011;22003;50.320;8.054;2023-05-10T16:33:58;0.70;;;0.70;;
35907;SDS011;22003;50.320;8.054;2023-05-10T16:36:23;0.95;;;0.40;;
35907;SDS011;22003;50.320;8.054;2023-05-10T16:38:48;0.70;;;0.60;;
35907;SDS011;22003;50.320;8.054;2023-05-10T16:41:13;0.68;;;0.52;;
35907;SDS011;22003;50.320;8.054;2023-05-10T16:43:38;2.47;;;0.80;;
35907;SDS011;22003;50.320;8.054;2023-05-10T16:46:08;0.52;;;0.50;;
35907;SDS011;22003;50.320;8.054;2023-05-10T16:48:34;4.15;;;0.80;;
35907;SDS011;22003;50.320;8.054;2023-05-10T16:51:01;0.50;;;0.50;;
35907;SDS011;22003;50.320;8.054;2023-05-10T16:53:26;0.70;;;0.65;;
35907;SDS011;22003;50.320;8.054;2023-05-10T16:55:52;0.73;;;0.60;;
35907;SDS011;22003;50.320;8.054;2023-05-10T16:58:18;1.85;;;0.77;;
35907;SDS011;22003;50.320;8.054;2023-05-10T17:00:43;1.38;;;0.52;;
35907;SDS011;22003;50.320;8.054;2023-05-10T17:03:08;1.33;;;0.40;;
35907;SDS011;22003;50.320;8.054;2023-05-10T17:05:33;1.33;;;0.45;;
35907;SDS011;22003;50.320;8.054;2023-05-10T17:07:59;1.17;;;0.60;;
35907;SDS011;22003;50.320;8.054;2023-05-10T17:10:24;0.93;;;0.55;;
35907;SDS011;22003;50.320;8.054;2023-05-10T17:12:50;3.25;;;0.45;;
35907;SDS011;22003;50.320;8.054;2023-05-10T17:15:15;1.35;;;0.50;;
35907;SDS011;22003;50.320;8.054;2023-05-10T17:17:42;0.88;;;0.77;;
35907;SDS011;22003;50.320;8.054;2023-05-10T17:20:08;1.20;;;0.43;;
35907;SDS011;22003;50.320;8.054;2023-05-10T17:22:33;0.93;;;0.40;;
35907;SDS011;22003;50.320;8.054;2023-05-10T17:24:59;2.53;;;0.35;;
35907;SDS011;22003;50.320;8.054;2023-05-10T17:27:24;1.50;;;0.68;;
35907;SDS011;22003;50.320;8.054;2023-05-10T17:29:54;1.17;;;0.57;;
35907;SDS011;22003;50.320;8.054;2023-05-10T17:32:22;6.88;;;0.75;;
35907;SDS011;22003;50.320;8.054;2023-05-10T17:34:48;1.55;;;0.95;;
35907;SDS011;22003;50.320;8.054;2023-05-10T17:37:13;3.00;;;1.27;;
35907;SDS011;22003;50.320;8.054;2023-05-10T17:39:38;1.85;;;1.45;;
35907;SDS011;22003;50.320;8.054;2023-05-10T17:42:03;1.65;;;1.10;;
35907;SDS011;22003;50.320;8.054;2023-05-10T17:44:29;1.65;;;1.40;;
35907;SDS011;22003;50.320;8.054;2023-05-10T17:46:54;4.55;;;1.45;;
35907;SDS011;22003;50.320;8.054;2023-05-10T17:49:19;3.15;;;1.92;;
35907;SDS011;22003;50.320;8.054;2023-05-10T17:51:45;2.53;;;1.70;;
35907;SDS011;22003;50.320;8.054;2023-05-10T17:54:12;2.58;;;1.70;;
35907;SDS011;22003;50.320;8.054;2023-05-10T17:56:37;1.55;;;1.30;;
35907;SDS011;22003;50.320;8.054;2023-05-10T17:59:03;1.52;;;1.40;;
35907;SDS011;22003;50.320;8.054;2023-05-10T18:01:29;4.60;;;1.30;;
35907;SDS011;22003;50.320;8.054;2023-05-10T18:03:54;3.13;;;1.65;;
35907;SDS011;22003;50.320;8.054;2023-05-10T18:06:19;4.38;;;1.40;;
35907;SDS011;22003;50.320;8.054;2023-05-10T18:08:45;1.92;;;1.48;;
35907;SDS011;22003;50.320;8.054;2023-05-10T18:11:10;2.67;;;1.50;;
35907;SDS011;22003;50.320;8.054;2023-05-10T18:13:35;2.85;;;1.73;;
35907;SDS011;22003;50.320;8.054;2023-05-10T18:16:01;1.98;;;1.48;;
35907;SDS011;22003;50.320;8.054;2023-05-10T18:18:26;3.08;;;1.70;;
35907;SDS011;22003;50.320;8.054;2023-05-10T18:20:51;3.15;;;1.83;;
35907;SDS011;22003;50.320;8.054;2023-05-10T18:23:21;2.20;;;1.60;;
35907;SDS011;22003;50.320;8.054;2023-05-10T18:25:48;2.65;;;1.88;;
35907;SDS011;22003;50.320;8.054;2023-05-10T18:28:13;2.85;;;1.80;;
35907;SDS011;22003;50.320;8.054;2023-05-10T18:30:39;2.00;;;1.75;;
35907;SDS011;22003;50.320;8.054;2023-05-10T18:33:05;2.72;;;1.40;;
35907;SDS011;22003;50.320;8.054;2023-05-10T18:35:30;6.13;;;2.60;;
35907;SDS011;22003;50.320;8.054;2023-05-10T18:37:56;1.92;;;1.58;;
35907;SDS011;22003;50.320;8.054;2023-05-10T18:40:21;2.38;;;2.00;;
35907;SDS011;22003;50.320;8.054;2023-05-10T18:42:47;2.72;;;1.90;;
35907;SDS011;22003;50.320;8.054;2023-05-10T18:45:13;4.05;;;2.00;;
35907;SDS011;22003;50.320;8.054;2023-05-10T18:47:39;3.72;;;2.20;;
35907;SDS011;22003;50.320;8.054;2023-05-10T18:50:04;4.55;;;2.17;;
35907;SDS011;22003;50.320;8.054;2023-05-10T18:52:30;3.00;;;2.00;;
35907;SDS011;22003;50.320;8.054;2023-05-10T18:54:55;5.15;;;3.25;;